Aérodrome :
LOGIN :

S'inscrire | Disclaimer

   EN    FR    IT 

 










Légende :    VFR   VFR Marginal   IFR   IFR Intensif   IFR Très Intensif
Visi : 
Plafond : 
>= 8 km
>= 3000ft
5 à 8 km
1000 à 3000 ft
1500m à 5 km
500 à 1000 ft
800 à 1500m
200 à 500 ft
< 800m
< 200 ft
Symboles :   Orages  Brouillard  Fortes neiges  Fortes précipitations  Vent > 20 kt
SIGMETs :   Divers  Orages  Givrage  Turbulence  Onde Orograph.  Cendres Volcan.






- Altitude de l'aérodrome : 46 ft
- Code IATA : SNN


EINN - Shannon

DERNIER METAR :
  • 070330Z 34011KT 9999 FEW016 BKN025 11/06 Q1011 NOSIG

METARs EXPIRÉS :
  • 070300Z 34008KT 9999 FEW016 BKN021 11/07 Q1011 NOSIG
  • 070230Z 32008KT 9999 FEW016 BKN021 11/07 Q1011 NOSIG
  • 070200Z 31006KT 9999 FEW016 BKN021 11/08 Q1011 NOSIG
  • 070130Z 32007KT 9999 FEW016 BKN022 11/08 Q1011 NOSIG
  • 070100Z 31008KT 9999 FEW016 BKN023 11/08 Q1010 NOSIG
  • 070030Z 30010KT 9999 FEW016 BKN024 11/08 Q1010 NOSIG

TAF TAF EINN
Valide du 07 à 00h jusqu'au 08 à 00h UTC


062300Z 0700/0724 30010KT 9999 FEW016 BKN022
PROB30
TEMPO 0700/0706 BKN014
BECMG 0706/0708 34010KT



MET'MAP, la Météo Aéronautique d'un coup d'oeil ! - Copyright ORBIFLY Décembre 2007 - Disclaimer

ORBIFLY MET'MAP TEAM :

Programmation & Développement : Alexandra Zaïnal
Sur une idée originale de : Baudouin d'Aumeries
Assistance à la programmation : Marc-Olivier Méhu
Soutien technique & logistique : Manuel Goepfert

Contact : metmap@orbifly.com




SOURCES & CREDITS :

   NOAA